sensor_id;sensor_type;location;lat;lon;timestamp;temperature;humidity
62072;DHT22;48031;48.542;13.232;2022-08-14T00:00:01;18.00;1.00
62072;DHT22;48031;48.542;13.232;2022-08-14T00:02:37;18.70;1.00
62072;DHT22;48031;48.542;13.232;2022-08-14T00:05:07;19.00;1.00
62072;DHT22;48031;48.542;13.232;2022-08-14T00:07:34;19.60;1.00
62072;DHT22;48031;48.542;13.232;2022-08-14T00:10:08;18.40;1.00
62072;DHT22;48031;48.542;13.232;2022-08-14T00:15:28;19.20;1.20
62072;DHT22;48031;48.542;13.232;2022-08-14T00:28:09;19.80;2.10
62072;DHT22;48031;48.542;13.232;2022-08-14T00:30:41;20.20;2.00
62072;DHT22;48031;48.542;13.232;2022-08-14T00:33:09;20.00;1.70
62072;DHT22;48031;48.542;13.232;2022-08-14T00:35:42;19.70;1.80
62072;DHT22;48031;48.542;13.232;2022-08-14T00:38:30;18.00;1.00
62072;DHT22;48031;48.542;13.232;2022-08-14T00:40:58;18.40;1.60
62072;DHT22;48031;48.542;13.232;2022-08-14T00:45:59;19.20;1.30
62072;DHT22;48031;48.542;13.232;2022-08-14T00:48:31;19.00;1.00
62072;DHT22;48031;48.542;13.232;2022-08-14T00:51:11;19.20;3.20
62072;DHT22;48031;48.542;13.232;2022-08-14T00:53:38;19.70;4.10
62072;DHT22;48031;48.542;13.232;2022-08-14T00:56:08;19.70;3.20
62072;DHT22;48031;48.542;13.232;2022-08-14T00:58:39;19.00;2.50
62072;DHT22;48031;48.542;13.232;2022-08-14T01:01:14;19.20;3.30
62072;DHT22;48031;48.542;13.232;2022-08-14T01:03:44;19.20;2.80
62072;DHT22;48031;48.542;13.232;2022-08-14T01:06:18;18.10;3.30
62072;DHT22;48031;48.542;13.232;2022-08-14T01:08:46;18.30;3.50
62072;DHT22;48031;48.542;13.232;2022-08-14T01:11:26;18.20;3.90
62072;DHT22;48031;48.542;13.232;2022-08-14T01:13:57;19.00;4.40
62072;DHT22;48031;48.542;13.232;2022-08-14T01:16:27;18.70;4.90
62072;DHT22;48031;48.542;13.232;2022-08-14T01:18:57;18.70;5.30
62072;DHT22;48031;48.542;13.232;2022-08-14T01:21:45;15.80;4.60
62072;DHT22;48031;48.542;13.232;2022-08-14T01:24:22;16.30;4.70
62072;DHT22;48031;48.542;13.232;2022-08-14T01:27:00;19.00;5.60
62072;DHT22;48031;48.542;13.232;2022-08-14T01:29:30;16.60;4.20
62072;DHT22;48031;48.542;13.232;2022-08-14T01:32:23;15.70;4.50
62072;DHT22;48031;48.542;13.232;2022-08-14T01:34:51;16.70;5.10
62072;DHT22;48031;48.542;13.232;2022-08-14T01:37:44;17.40;5.20
62072;DHT22;48031;48.542;13.232;2022-08-14T01:40:22;17.90;5.50
62072;DHT22;48031;48.542;13.232;2022-08-14T01:43:06;17.70;6.00
62072;DHT22;48031;48.542;13.232;2022-08-14T01:45:37;17.30;5.30
62072;DHT22;48031;48.542;13.232;2022-08-14T01:48:06;17.40;5.20
62072;DHT22;48031;48.542;13.232;2022-08-14T01:50:40;19.00;5.10
62072;DHT22;48031;48.542;13.232;2022-08-14T01:53:08;16.10;4.30
62072;DHT22;48031;48.542;13.232;2022-08-14T01:55:36;17.60;4.70
62072;DHT22;48031;48.542;13.232;2022-08-14T01:58:06;18.60;5.40
62072;DHT22;48031;48.542;13.232;2022-08-14T02:00:47;18.60;6.30
62072;DHT22;48031;48.542;13.232;2022-08-14T02:03:28;18.20;6.40
62072;DHT22;48031;48.542;13.232;2022-08-14T02:05:57;17.70;2.00
62072;DHT22;48031;48.542;13.232;2022-08-14T02:08:26;18.60;6.00
62072;DHT22;48031;48.542;13.232;2022-08-14T02:11:01;18.40;7.20
62072;DHT22;48031;48.542;13.232;2022-08-14T02:13:54;17.60;2.60
62072;DHT22;48031;48.542;13.232;2022-08-14T02:16:23;18.10;1.60
62072;DHT22;48031;48.542;13.232;2022-08-14T02:18:56;18.70;6.10
62072;DHT22;48031;48.542;13.232;2022-08-14T02:21:24;18.50;6.40
62072;DHT22;48031;48.542;13.232;2022-08-14T02:23:53;17.70;6.10
62072;DHT22;48031;48.542;13.232;2022-08-14T02:26:21;18.00;6.60
62072;DHT22;48031;48.542;13.232;2022-08-14T02:28:56;15.80;6.30
62072;DHT22;48031;48.542;13.232;2022-08-14T02:31:30;17.90;6.70
62072;DHT22;48031;48.542;13.232;2022-08-14T02:34:17;15.20;5.60
62072;DHT22;48031;48.542;13.232;2022-08-14T02:36:49;17.40;2.10
62072;DHT22;48031;48.542;13.232;2022-08-14T02:39:36;17.80;6.70
62072;DHT22;48031;48.542;13.232;2022-08-14T02:42:03;18.40;7.20
62072;DHT22;48031;48.542;13.232;2022-08-14T02:44:31;18.10;7.40
62072;DHT22;48031;48.542;13.232;2022-08-14T02:49:40;18.40;7.20
62072;DHT22;48031;48.542;13.232;2022-08-14T02:52:08;17.40;6.70
62072;DHT22;48031;48.542;13.232;2022-08-14T02:54:56;17.60;6.00
62072;DHT22;48031;48.542;13.232;2022-08-14T02:57:23;18.20;6.50
62072;DHT22;48031;48.542;13.232;2022-08-14T03:00:07;18.30;7.10
62072;DHT22;48031;48.542;13.232;2022-08-14T03:02:36;17.80;6.90
62072;DHT22;48031;48.542;13.232;2022-08-14T03:05:24;18.40;7.40
62072;DHT22;48031;48.542;13.232;2022-08-14T03:07:52;17.70;7.90
62072;DHT22;48031;48.542;13.232;2022-08-14T03:10:21;18.30;8.70
62072;DHT22;48031;48.542;13.232;2022-08-14T03:12:59;17.50;8.30
62072;DHT22;48031;48.542;13.232;2022-08-14T03:15:30;17.20;8.50
62072;DHT22;48031;48.542;13.232;2022-08-14T03:18:00;18.00;8.10
62072;DHT22;48031;48.542;13.232;2022-08-14T03:20:27;17.80;8.50
62072;DHT22;48031;48.542;13.232;2022-08-14T03:22:57;17.90;8.20
62072;DHT22;48031;48.542;13.232;2022-08-14T03:25:30;17.40;4.50
62072;DHT22;48031;48.542;13.232;2022-08-14T03:28:04;16.10;9.00
62072;DHT22;48031;48.542;13.232;2022-08-14T03:33:06;14.60;8.20
62072;DHT22;48031;48.542;13.232;2022-08-14T03:35:34;15.90;8.90
62072;DHT22;48031;48.542;13.232;2022-08-14T03:38:07;16.50;9.50
62072;DHT22;48031;48.542;13.232;2022-08-14T03:40:57;16.70;9.80
62072;DHT22;48031;48.542;13.232;2022-08-14T03:43:24;16.40;9.60
62072;DHT22;48031;48.542;13.232;2022-08-14T03:45:58;16.80;9.50
62072;DHT22;48031;48.542;13.232;2022-08-14T03:48:26;16.40;10.10
62072;DHT22;48031;48.542;13.232;2022-08-14T03:50:57;17.20;10.80
62072;DHT22;48031;48.542;13.232;2022-08-14T03:53:27;16.60;10.50
62072;DHT22;48031;48.542;13.232;2022-08-14T03:55:57;17.60;10.70
62072;DHT22;48031;48.542;13.232;2022-08-14T03:58:24;17.00;10.60
62072;DHT22;48031;48.542;13.232;2022-08-14T04:01:02;17.80;11.40
62072;DHT22;48031;48.542;13.232;2022-08-14T04:03:32;16.90;11.10
62072;DHT22;48031;48.542;13.232;2022-08-14T04:06:03;17.00;11.20
62072;DHT22;48031;48.542;13.232;2022-08-14T04:08:35;16.50;11.00
62072;DHT22;48031;48.542;13.232;2022-08-14T04:11:03;17.80;11.90
62072;DHT22;48031;48.542;13.232;2022-08-14T04:13:37;17.40;11.50
62072;DHT22;48031;48.542;13.232;2022-08-14T04:33:44;17.20;11.30
62072;DHT22;48031;48.542;13.232;2022-08-14T04:41:27;17.40;11.30
62072;DHT22;48031;48.542;13.232;2022-08-14T04:44:16;16.80;7.10
62072;DHT22;48031;48.542;13.232;2022-08-14T04:47:02;17.50;11.60
62072;DHT22;48031;48.542;13.232;2022-08-14T04:49:49;17.40;11.50
62072;DHT22;48031;48.542;13.232;2022-08-14T05:26:00;17.50;10.00
62072;DHT22;48031;48.542;13.232;2022-08-14T05:28:29;17.30;8.90
62072;DHT22;48031;48.542;13.232;2022-08-14T05:31:02;17.10;10.00
62072;DHT22;48031;48.542;13.232;2022-08-14T05:33:30;18.30;5.80
62072;DHT22;48031;48.542;13.232;2022-08-14T05:35:59;17.30;9.30
62072;DHT22;48031;48.542;13.232;2022-08-14T05:38:30;14.80;3.70
62072;DHT22;48031;48.542;13.232;2022-08-14T05:41:05;16.70;8.10
62072;DHT22;48031;48.542;13.232;2022-08-14T05:43:34;17.50;4.00
62072;DHT22;48031;48.542;13.232;2022-08-14T05:46:11;18.40;8.20
62072;DHT22;48031;48.542;13.232;2022-08-14T05:48:41;17.30;3.80
62072;DHT22;48031;48.542;13.232;2022-08-14T05:51:09;17.30;6.50
62072;DHT22;48031;48.542;13.232;2022-08-14T05:53:36;17.00;6.50
62072;DHT22;48031;48.542;13.232;2022-08-14T05:56:08;18.70;6.80
62072;DHT22;48031;48.542;13.232;2022-08-14T05:58:35;18.10;6.30
62072;DHT22;48031;48.542;13.232;2022-08-14T06:01:07;17.80;6.40
62072;DHT22;48031;48.542;13.232;2022-08-14T06:03:35;17.60;6.10
62072;DHT22;48031;48.542;13.232;2022-08-14T06:06:06;17.70;5.70
62072;DHT22;48031;48.542;13.232;2022-08-14T06:08:33;19.00;6.80
62072;DHT22;48031;48.542;13.232;2022-08-14T06:11:07;18.00;5.70
62072;DHT22;48031;48.542;13.232;2022-08-14T06:13:36;18.70;4.90
62072;DHT22;48031;48.542;13.232;2022-08-14T06:16:14;18.50;4.60
62072;DHT22;48031;48.542;13.232;2022-08-14T06:23:39;19.30;4.30
62072;DHT22;48031;48.542;13.232;2022-08-14T06:26:07;19.20;3.40
62072;DHT22;48031;48.542;13.232;2022-08-14T06:28:35;19.80;2.60
62072;DHT22;48031;48.542;13.232;2022-08-14T06:31:06;18.90;3.20
62072;DHT22;48031;48.542;13.232;2022-08-14T06:33:33;18.20;2.70
62072;DHT22;48031;48.542;13.232;2022-08-14T06:41:16;17.10;1.00
62072;DHT22;48031;48.542;13.232;2022-08-14T06:43:46;19.90;1.30
62072;DHT22;48031;48.542;13.232;2022-08-14T06:46:14;20.00;1.80
62072;DHT22;48031;48.542;13.232;2022-08-14T06:49:00;19.70;1.00
62072;DHT22;48031;48.542;13.232;2022-08-14T06:51:28;20.10;1.00
62072;DHT22;48031;48.542;13.232;2022-08-14T06:54:10;19.50;1.00
62072;DHT22;48031;48.542;13.232;2022-08-14T06:56:38;19.30;1.00
62072;DHT22;48031;48.542;13.232;2022-08-14T06:59:12;19.50;1.00
62072;DHT22;48031;48.542;13.232;2022-08-14T07:01:45;19.40;1.00
62072;DHT22;48031;48.542;13.232;2022-08-14T07:04:31;19.70;1.00
62072;DHT22;48031;48.542;13.232;2022-08-14T07:07:16;17.90;1.00
62072;DHT22;48031;48.542;13.232;2022-08-14T07:09:44;20.80;1.00
62072;DHT22;48031;48.542;13.232;2022-08-14T07:12:16;20.80;1.00
62072;DHT22;48031;48.542;13.232;2022-08-14T07:15:04;19.70;1.00
62072;DHT22;48031;48.542;13.232;2022-08-14T07:17:31;19.20;1.00
62072;DHT22;48031;48.542;13.232;2022-08-14T07:20:03;18.60;1.00
62072;DHT22;48031;48.542;13.232;2022-08-14T07:22:32;18.50;1.00
62072;DHT22;48031;48.542;13.232;2022-08-14T07:25:19;20.60;1.00
62072;DHT22;48031;48.542;13.232;2022-08-14T07:27:46;21.00;1.00
62072;DHT22;48031;48.542;13.232;2022-08-14T07:30:15;20.90;1.00
62072;DHT22;48031;48.542;13.232;2022-08-14T07:33:01;21.10;1.00
62072;DHT22;48031;48.542;13.232;2022-08-14T07:35:28;20.90;1.00
62072;DHT22;48031;48.542;13.232;2022-08-14T07:38:15;19.60;1.00
62072;DHT22;48031;48.542;13.232;2022-08-14T07:40:46;18.90;1.00
62072;DHT22;48031;48.542;13.232;2022-08-14T07:43:18;21.00;1.00
62072;DHT22;48031;48.542;13.232;2022-08-14T07:45:46;22.00;1.00
62072;DHT22;48031;48.542;13.232;2022-08-14T07:48:19;21.80;1.00
62072;DHT22;48031;48.542;13.232;2022-08-14T07:50:51;20.70;1.00
62072;DHT22;48031;48.542;13.232;2022-08-14T07:53:21;21.20;1.00
62072;DHT22;48031;48.542;13.232;2022-08-14T07:55:48;21.70;1.00
62072;DHT22;48031;48.542;13.232;2022-08-14T07:58:34;21.80;1.00
62072;DHT22;48031;48.542;13.232;2022-08-14T08:01:05;22.30;1.00
62072;DHT22;48031;48.542;13.232;2022-08-14T08:03:34;22.00;1.00
62072;DHT22;48031;48.542;13.232;2022-08-14T08:06:04;22.20;1.00
62072;DHT22;48031;48.542;13.232;2022-08-14T08:08:43;21.60;1.00
62072;DHT22;48031;48.542;13.232;2022-08-14T08:11:27;20.80;1.00
62072;DHT22;48031;48.542;13.232;2022-08-14T08:14:05;22.50;1.00
62072;DHT22;48031;48.542;13.232;2022-08-14T08:16:44;22.40;1.00
62072;DHT22;48031;48.542;13.232;2022-08-14T08:19:11;22.60;1.00
62072;DHT22;48031;48.542;13.232;2022-08-14T08:21:40;22.70;1.00
62072;DHT22;48031;48.542;13.232;2022-08-14T08:24:10;22.20;1.00
62072;DHT22;48031;48.542;13.232;2022-08-14T08:26:44;21.70;1.00
62072;DHT22;48031;48.542;13.232;2022-08-14T08:29:17;21.40;1.00
62072;DHT22;48031;48.542;13.232;2022-08-14T08:31:49;23.60;1.00
62072;DHT22;48031;48.542;13.232;2022-08-14T08:34:18;22.30;1.00
62072;DHT22;48031;48.542;13.232;2022-08-14T08:36:49;23.40;1.00
62072;DHT22;48031;48.542;13.232;2022-08-14T08:39:16;22.10;1.00
62072;DHT22;48031;48.542;13.232;2022-08-14T08:41:48;23.00;1.00
62072;DHT22;48031;48.542;13.232;2022-08-14T08:44:19;22.80;1.00
62072;DHT22;48031;48.542;13.232;2022-08-14T08:47:00;23.70;1.00
62072;DHT22;48031;48.542;13.232;2022-08-14T08:49:34;23.50;1.00
62072;DHT22;48031;48.542;13.232;2022-08-14T08:52:08;23.60;1.00
62072;DHT22;48031;48.542;13.232;2022-08-14T08:54:51;22.20;1.00
62072;DHT22;48031;48.542;13.232;2022-08-14T08:57:19;24.60;1.00
62072;DHT22;48031;48.542;13.232;2022-08-14T09:02:14;24.10;1.00
62072;DHT22;48031;48.542;13.232;2022-08-14T09:04:42;24.40;1.00
62072;DHT22;48031;48.542;13.232;2022-08-14T09:07:25;25.30;1.00
62072;DHT22;48031;48.542;13.232;2022-08-14T09:09:52;24.90;1.00
62072;DHT22;48031;48.542;13.232;2022-08-14T09:12:26;23.80;1.00
62072;DHT22;48031;48.542;13.232;2022-08-14T09:15:07;25.90;1.00
62072;DHT22;48031;48.542;13.232;2022-08-14T09:17:38;25.70;1.00
62072;DHT22;48031;48.542;13.232;2022-08-14T09:20:08;25.20;1.00
62072;DHT22;48031;48.542;13.232;2022-08-14T09:22:40;26.10;1.00
62072;DHT22;48031;48.542;13.232;2022-08-14T09:25:13;25.20;1.00
62072;DHT22;48031;48.542;13.232;2022-08-14T09:27:41;25.40;1.00
62072;DHT22;48031;48.542;13.232;2022-08-14T09:30:08;26.00;1.00
62072;DHT22;48031;48.542;13.232;2022-08-14T09:38:37;25.90;1.00
62072;DHT22;48031;48.542;13.232;2022-08-14T09:41:17;27.10;1.00
62072;DHT22;48031;48.542;13.232;2022-08-14T09:43:51;26.80;1.00
62072;DHT22;48031;48.542;13.232;2022-08-14T09:46:22;27.00;1.00
62072;DHT22;48031;48.542;13.232;2022-08-14T09:48:57;26.60;1.00
62072;DHT22;48031;48.542;13.232;2022-08-14T09:51:24;26.60;1.00
62072;DHT22;48031;48.542;13.232;2022-08-14T09:54:00;27.40;1.00
62072;DHT22;48031;48.542;13.232;2022-08-14T09:56:48;28.40;1.00
62072;DHT22;48031;48.542;13.232;2022-08-14T09:59:22;30.90;1.00
62072;DHT22;48031;48.542;13.232;2022-08-14T10:01:54;33.80;1.00
62072;DHT22;48031;48.542;13.232;2022-08-14T10:04:24;33.00;1.00
62072;DHT22;48031;48.542;13.232;2022-08-14T10:07:00;33.50;1.00
62072;DHT22;48031;48.542;13.232;2022-08-14T10:09:29;36.30;1.00
62072;DHT22;48031;48.542;13.232;2022-08-14T10:12:01;37.00;1.00
62072;DHT22;48031;48.542;13.232;2022-08-14T10:14:32;37.20;1.00
62072;DHT22;48031;48.542;13.232;2022-08-14T10:17:02;37.20;1.00
62072;DHT22;48031;48.542;13.232;2022-08-14T10:19:34;38.10;1.00
62072;DHT22;48031;48.542;13.232;2022-08-14T10:22:03;38.00;1.00
62072;DHT22;48031;48.542;13.232;2022-08-14T10:24:54;39.40;1.00
62072;DHT22;48031;48.542;13.232;2022-08-14T10:27:22;38.60;1.00
62072;DHT22;48031;48.542;13.232;2022-08-14T10:29:53;39.90;1.00
62072;DHT22;48031;48.542;13.232;2022-08-14T10:32:24;39.90;1.00
62072;DHT22;48031;48.542;13.232;2022-08-14T10:35:06;41.00;1.00
62072;DHT22;48031;48.542;13.232;2022-08-14T10:37:47;42.60;1.00
62072;DHT22;48031;48.542;13.232;2022-08-14T10:40:23;41.30;1.00
62072;DHT22;48031;48.542;13.232;2022-08-14T10:43:17;40.80;1.00
62072;DHT22;48031;48.542;13.232;2022-08-14T10:45:56;42.20;1.00
62072;DHT22;48031;48.542;13.232;2022-08-14T10:51:26;43.20;1.00
62072;DHT22;48031;48.542;13.232;2022-08-14T10:53:56;42.00;1.00
62072;DHT22;48031;48.542;13.232;2022-08-14T10:56:27;40.40;1.00
62072;DHT22;48031;48.542;13.232;2022-08-14T10:59:04;42.40;1.00
62072;DHT22;48031;48.542;13.232;2022-08-14T11:01:35;42.70;1.00
62072;DHT22;48031;48.542;13.232;2022-08-14T11:04:18;43.20;1.00
62072;DHT22;48031;48.542;13.232;2022-08-14T11:06:52;45.40;1.00
62072;DHT22;48031;48.542;13.232;2022-08-14T11:09:19;43.90;1.00
62072;DHT22;48031;48.542;13.232;2022-08-14T11:11:53;43.50;1.00
62072;DHT22;48031;48.542;13.232;2022-08-14T11:14:21;44.60;1.00
62072;DHT22;48031;48.542;13.232;2022-08-14T11:16:52;44.90;1.00
62072;DHT22;48031;48.542;13.232;2022-08-14T11:19:20;45.40;1.00
62072;DHT22;48031;48.542;13.232;2022-08-14T11:21:50;45.70;1.00
62072;DHT22;48031;48.542;13.232;2022-08-14T11:24:21;47.90;1.00
62072;DHT22;48031;48.542;13.232;2022-08-14T11:27:09;46.90;1.00
62072;DHT22;48031;48.542;13.232;2022-08-14T11:29:43;48.40;1.00
62072;DHT22;48031;48.542;13.232;2022-08-14T11:32:18;46.80;1.00
62072;DHT22;48031;48.542;13.232;2022-08-14T11:34:45;47.30;1.00
62072;DHT22;48031;48.542;13.232;2022-08-14T11:37:12;48.20;1.00
62072;DHT22;48031;48.542;13.232;2022-08-14T11:39:59;47.70;1.00
62072;DHT22;48031;48.542;13.232;2022-08-14T11:42:27;48.40;1.00
62072;DHT22;48031;48.542;13.232;2022-08-14T11:45:15;50.40;1.00
62072;DHT22;48031;48.542;13.232;2022-08-14T11:47:44;48.30;1.00
62072;DHT22;48031;48.542;13.232;2022-08-14T11:50:32;48.40;1.00
62072;DHT22;48031;48.542;13.232;2022-08-14T11:53:04;50.50;1.00
62072;DHT22;48031;48.542;13.232;2022-08-14T11:55:33;50.20;1.00
62072;DHT22;48031;48.542;13.232;2022-08-14T11:58:02;50.20;1.00
62072;DHT22;48031;48.542;13.232;2022-08-14T12:00:30;50.20;1.00
62072;DHT22;48031;48.542;13.232;2022-08-14T12:03:05;51.20;1.00
62072;DHT22;48031;48.542;13.232;2022-08-14T12:05:33;50.30;1.00
62072;DHT22;48031;48.542;13.232;2022-08-14T12:08:02;49.80;1.00
62072;DHT22;48031;48.542;13.232;2022-08-14T12:10:40;49.00;1.00
62072;DHT22;48031;48.542;13.232;2022-08-14T12:13:18;50.20;1.00
62072;DHT22;48031;48.542;13.232;2022-08-14T12:15:55;49.70;1.00
62072;DHT22;48031;48.542;13.232;2022-08-14T12:18:33;48.00;1.00
62072;DHT22;48031;48.542;13.232;2022-08-14T12:21:10;47.90;1.00
62072;DHT22;48031;48.542;13.232;2022-08-14T12:23:45;48.20;1.00
62072;DHT22;48031;48.542;13.232;2022-08-14T12:26:17;50.40;1.00
62072;DHT22;48031;48.542;13.232;2022-08-14T12:29:07;49.90;1.00
62072;DHT22;48031;48.542;13.232;2022-08-14T12:31:34;50.70;1.00
62072;DHT22;48031;48.542;13.232;2022-08-14T12:34:12;51.70;1.00
62072;DHT22;48031;48.542;13.232;2022-08-14T12:36:46;51.00;1.00
62072;DHT22;48031;48.542;13.232;2022-08-14T12:39:31;51.20;1.00
62072;DHT22;48031;48.542;13.232;2022-08-14T12:42:06;50.60;1.00
62072;DHT22;48031;48.542;13.232;2022-08-14T12:44:37;53.10;1.00
62072;DHT22;48031;48.542;13.232;2022-08-14T12:47:06;51.10;1.00
62072;DHT22;48031;48.542;13.232;2022-08-14T12:49:33;51.60;1.00
62072;DHT22;48031;48.542;13.232;2022-08-14T12:54:28;44.90;1.00
62072;DHT22;48031;48.542;13.232;2022-08-14T12:57:05;42.30;1.00
62072;DHT22;48031;48.542;13.232;2022-08-14T12:59:34;42.90;1.00
62072;DHT22;48031;48.542;13.232;2022-08-14T13:04:39;40.20;1.00
62072;DHT22;48031;48.542;13.232;2022-08-14T13:07:08;40.80;1.00
62072;DHT22;48031;48.542;13.232;2022-08-14T13:09:35;42.30;1.00
62072;DHT22;48031;48.542;13.232;2022-08-14T13:12:03;42.10;1.00
62072;DHT22;48031;48.542;13.232;2022-08-14T13:14:55;43.30;1.00
62072;DHT22;48031;48.542;13.232;2022-08-14T13:17:23;44.70;1.00
62072;DHT22;48031;48.542;13.232;2022-08-14T13:19:56;48.80;1.00
62072;DHT22;48031;48.542;13.232;2022-08-14T13:22:24;47.40;1.00
62072;DHT22;48031;48.542;13.232;2022-08-14T13:24:59;46.40;1.00
62072;DHT22;48031;48.542;13.232;2022-08-14T13:27:31;47.50;1.00
62072;DHT22;48031;48.542;13.232;2022-08-14T13:30:08;47.90;1.00
62072;DHT22;48031;48.542;13.232;2022-08-14T13:32:46;49.90;1.00
62072;DHT22;48031;48.542;13.232;2022-08-14T13:35:16;50.50;1.00
62072;DHT22;48031;48.542;13.232;2022-08-14T13:37:45;50.80;1.00
62072;DHT22;48031;48.542;13.232;2022-08-14T13:40:18;50.50;1.00
62072;DHT22;48031;48.542;13.232;2022-08-14T13:42:46;48.10;1.00
62072;DHT22;48031;48.542;13.232;2022-08-14T13:45:18;47.80;1.00
62072;DHT22;48031;48.542;13.232;2022-08-14T13:47:48;47.50;1.00
62072;DHT22;48031;48.542;13.232;2022-08-14T13:50:17;50.10;1.00
62072;DHT22;48031;48.542;13.232;2022-08-14T13:52:47;48.60;1.00
62072;DHT22;48031;48.542;13.232;2022-08-14T13:55:21;49.70;1.00
62072;DHT22;48031;48.542;13.232;2022-08-14T13:57:49;52.30;1.00
62072;DHT22;48031;48.542;13.232;2022-08-14T14:00:30;51.10;1.00
62072;DHT22;48031;48.542;13.232;2022-08-14T14:03:02;46.80;1.00
62072;DHT22;48031;48.542;13.232;2022-08-14T14:05:31;45.90;1.00
62072;DHT22;48031;48.542;13.232;2022-08-14T14:08:20;48.90;1.00
62072;DHT22;48031;48.542;13.232;2022-08-14T14:11:07;48.10;1.00
62072;DHT22;48031;48.542;13.232;2022-08-14T14:13:35;48.40;1.00
62072;DHT22;48031;48.542;13.232;2022-08-14T14:16:07;49.60;1.00
62072;DHT22;48031;48.542;13.232;2022-08-14T14:18:35;49.20;1.00
62072;DHT22;48031;48.542;13.232;2022-08-14T14:21:08;50.20;1.00
62072;DHT22;48031;48.542;13.232;2022-08-14T14:23:36;52.50;1.00
62072;DHT22;48031;48.542;13.232;2022-08-14T14:26:04;51.50;1.00
62072;DHT22;48031;48.542;13.232;2022-08-14T14:28:40;51.80;1.00
62072;DHT22;48031;48.542;13.232;2022-08-14T14:31:09;50.00;1.00
62072;DHT22;48031;48.542;13.232;2022-08-14T14:33:41;50.60;1.00
62072;DHT22;48031;48.542;13.232;2022-08-14T14:36:16;49.00;1.00
62072;DHT22;48031;48.542;13.232;2022-08-14T14:39:06;49.40;1.00
62072;DHT22;48031;48.542;13.232;2022-08-14T14:41:36;49.10;1.00
62072;DHT22;48031;48.542;13.232;2022-08-14T14:44:10;51.20;1.00
62072;DHT22;48031;48.542;13.232;2022-08-14T14:46:42;50.90;1.00
62072;DHT22;48031;48.542;13.232;2022-08-14T14:49:19;48.90;1.00
62072;DHT22;48031;48.542;13.232;2022-08-14T14:51:51;47.80;1.00
62072;DHT22;48031;48.542;13.232;2022-08-14T14:54:19;48.00;1.00
62072;DHT22;48031;48.542;13.232;2022-08-14T14:56:58;48.10;1.00
62072;DHT22;48031;48.542;13.232;2022-08-14T14:59:30;46.80;1.00
62072;DHT22;48031;48.542;13.232;2022-08-14T15:02:02;47.90;1.00
62072;DHT22;48031;48.542;13.232;2022-08-14T15:04:34;46.00;1.00
62072;DHT22;48031;48.542;13.232;2022-08-14T15:07:05;42.70;1.00
62072;DHT22;48031;48.542;13.232;2022-08-14T15:09:32;42.60;1.00
62072;DHT22;48031;48.542;13.232;2022-08-14T15:12:00;41.40;1.00
62072;DHT22;48031;48.542;13.232;2022-08-14T15:14:48;41.20;1.00
62072;DHT22;48031;48.542;13.232;2022-08-14T15:17:23;40.10;1.00
62072;DHT22;48031;48.542;13.232;2022-08-14T15:19:54;40.10;1.00
62072;DHT22;48031;48.542;13.232;2022-08-14T15:22:22;39.70;1.00
62072;DHT22;48031;48.542;13.232;2022-08-14T15:24:51;38.50;1.00
62072;DHT22;48031;48.542;13.232;2022-08-14T15:27:18;39.70;1.00
62072;DHT22;48031;48.542;13.232;2022-08-14T15:29:52;37.40;1.00
62072;DHT22;48031;48.542;13.232;2022-08-14T15:32:19;37.30;1.00
62072;DHT22;48031;48.542;13.232;2022-08-14T15:34:49;37.60;1.00
62072;DHT22;48031;48.542;13.232;2022-08-14T15:37:18;38.00;1.00
62072;DHT22;48031;48.542;13.232;2022-08-14T15:39:49;36.80;1.00
62072;DHT22;48031;48.542;13.232;2022-08-14T15:42:19;36.60;1.00
62072;DHT22;48031;48.542;13.232;2022-08-14T15:44:49;36.20;1.00
62072;DHT22;48031;48.542;13.232;2022-08-14T15:49:56;37.70;1.00
62072;DHT22;48031;48.542;13.232;2022-08-14T15:55:54;38.40;1.00
62072;DHT22;48031;48.542;13.232;2022-08-14T15:58:22;39.70;1.00
62072;DHT22;48031;48.542;13.232;2022-08-14T16:00:50;39.80;1.00
62072;DHT22;48031;48.542;13.232;2022-08-14T16:03:37;40.50;1.00
62072;DHT22;48031;48.542;13.232;2022-08-14T16:06:09;40.60;1.00
62072;DHT22;48031;48.542;13.232;2022-08-14T16:08:44;42.00;1.00
62072;DHT22;48031;48.542;13.232;2022-08-14T16:11:16;43.00;1.00
62072;DHT22;48031;48.542;13.232;2022-08-14T16:13:44;41.70;1.00
62072;DHT22;48031;48.542;13.232;2022-08-14T16:16:22;43.90;1.00
62072;DHT22;48031;48.542;13.232;2022-08-14T16:19:09;43.60;1.00
62072;DHT22;48031;48.542;13.232;2022-08-14T16:22:04;41.30;1.00
62072;DHT22;48031;48.542;13.232;2022-08-14T16:24:51;43.00;1.00
62072;DHT22;48031;48.542;13.232;2022-08-14T16:27:30;42.60;1.00
62072;DHT22;48031;48.542;13.232;2022-08-14T16:30:06;41.90;1.00
62072;DHT22;48031;48.542;13.232;2022-08-14T16:32:37;41.00;1.00
62072;DHT22;48031;48.542;13.232;2022-08-14T16:35:23;40.80;1.00
62072;DHT22;48031;48.542;13.232;2022-08-14T16:37:52;41.00;1.00
62072;DHT22;48031;48.542;13.232;2022-08-14T16:40:21;41.70;1.00
62072;DHT22;48031;48.542;13.232;2022-08-14T16:42:52;42.40;1.00
62072;DHT22;48031;48.542;13.232;2022-08-14T16:45:38;43.00;1.00
62072;DHT22;48031;48.542;13.232;2022-08-14T16:48:09;41.10;1.00
62072;DHT22;48031;48.542;13.232;2022-08-14T16:50:57;40.40;1.00
62072;DHT22;48031;48.542;13.232;2022-08-14T16:53:26;41.20;1.00
62072;DHT22;48031;48.542;13.232;2022-08-14T16:56:13;40.70;1.00
62072;DHT22;48031;48.542;13.232;2022-08-14T16:58:49;40.10;1.00
62072;DHT22;48031;48.542;13.232;2022-08-14T17:01:21;39.80;1.00
62072;DHT22;48031;48.542;13.232;2022-08-14T17:03:51;41.10;1.00
62072;DHT22;48031;48.542;13.232;2022-08-14T17:09:03;40.00;1.00
62072;DHT22;48031;48.542;13.232;2022-08-14T17:11:31;37.90;1.00
62072;DHT22;48031;48.542;13.232;2022-08-14T17:14:03;38.90;1.00
62072;DHT22;48031;48.542;13.232;2022-08-14T17:16:35;38.10;1.00
62072;DHT22;48031;48.542;13.232;2022-08-14T17:19:04;38.40;1.00
62072;DHT22;48031;48.542;13.232;2022-08-14T17:24:08;35.00;1.00
62072;DHT22;48031;48.542;13.232;2022-08-14T17:26:56;34.70;1.00
62072;DHT22;48031;48.542;13.232;2022-08-14T17:29:29;34.80;1.00
62072;DHT22;48031;48.542;13.232;2022-08-14T17:31:58;33.00;1.00
62072;DHT22;48031;48.542;13.232;2022-08-14T17:34:48;33.00;1.00
62072;DHT22;48031;48.542;13.232;2022-08-14T17:37:29;32.70;1.00
62072;DHT22;48031;48.542;13.232;2022-08-14T17:40:03;31.90;1.00
62072;DHT22;48031;48.542;13.232;2022-08-14T17:45:18;31.20;1.00
62072;DHT22;48031;48.542;13.232;2022-08-14T17:47:55;31.00;1.00
62072;DHT22;48031;48.542;13.232;2022-08-14T17:53:27;30.10;1.00
62072;DHT22;48031;48.542;13.232;2022-08-14T17:55:56;29.80;1.00
62072;DHT22;48031;48.542;13.232;2022-08-14T18:01:04;29.70;1.00
62072;DHT22;48031;48.542;13.232;2022-08-14T18:03:32;29.20;1.00
62072;DHT22;48031;48.542;13.232;2022-08-14T18:06:18;29.30;1.00
62072;DHT22;48031;48.542;13.232;2022-08-14T18:11:51;28.20;1.00
62072;DHT22;48031;48.542;13.232;2022-08-14T18:14:20;28.30;1.00